sensor_id;sensor_type;location;lat;lon;timestamp;P1;durP1;ratioP1;P2;durP2;ratioP2
12165;SDS011;6146;48.128;11.476;2024-02-15T00:00:27;2.03;;;1.60;;
12165;SDS011;6146;48.128;11.476;2024-02-15T00:02:53;2.93;;;1.80;;
12165;SDS011;6146;48.128;11.476;2024-02-15T00:05:18;2.67;;;1.63;;
12165;SDS011;6146;48.128;11.476;2024-02-15T00:07:44;2.17;;;1.70;;
12165;SDS011;6146;48.128;11.476;2024-02-15T00:10:13;2.17;;;1.80;;
12165;SDS011;6146;48.128;11.476;2024-02-15T00:12:39;1.57;;;1.43;;
12165;SDS011;6146;48.128;11.476;2024-02-15T00:15:05;1.67;;;1.57;;
12165;SDS011;6146;48.128;11.476;2024-02-15T00:17:30;1.83;;;1.50;;
12165;SDS011;6146;48.128;11.476;2024-02-15T00:19:57;2.13;;;1.57;;
12165;SDS011;6146;48.128;11.476;2024-02-15T00:22:23;1.93;;;1.60;;
12165;SDS011;6146;48.128;11.476;2024-02-15T00:24:48;3.33;;;1.60;;
12165;SDS011;6146;48.128;11.476;2024-02-15T00:27:16;1.83;;;1.50;;
12165;SDS011;6146;48.128;11.476;2024-02-15T00:29:42;1.60;;;1.50;;
12165;SDS011;6146;48.128;11.476;2024-02-15T00:32:08;1.90;;;1.60;;
12165;SDS011;6146;48.128;11.476;2024-02-15T00:34:35;1.70;;;1.60;;
12165;SDS011;6146;48.128;11.476;2024-02-15T00:37:03;1.87;;;1.60;;
12165;SDS011;6146;48.128;11.476;2024-02-15T00:39:29;1.87;;;1.50;;
12165;SDS011;6146;48.128;11.476;2024-02-15T00:41:56;2.17;;;1.60;;
12165;SDS011;6146;48.128;11.476;2024-02-15T00:44:22;2.17;;;1.43;;
12165;SDS011;6146;48.128;11.476;2024-02-15T00:46:48;2.27;;;1.53;;
12165;SDS011;6146;48.128;11.476;2024-02-15T00:49:13;2.23;;;1.77;;
12165;SDS011;6146;48.128;11.476;2024-02-15T00:51:39;1.90;;;1.63;;
12165;SDS011;6146;48.128;11.476;2024-02-15T00:54:04;1.77;;;1.50;;
12165;SDS011;6146;48.128;11.476;2024-02-15T00:56:31;3.67;;;1.70;;
12165;SDS011;6146;48.128;11.476;2024-02-15T00:58:58;3.23;;;1.70;;
12165;SDS011;6146;48.128;11.476;2024-02-15T01:01:25;1.83;;;1.60;;
12165;SDS011;6146;48.128;11.476;2024-02-15T01:03:51;1.83;;;1.50;;
12165;SDS011;6146;48.128;11.476;2024-02-15T01:06:17;1.47;;;1.30;;
12165;SDS011;6146;48.128;11.476;2024-02-15T01:08:43;2.53;;;1.70;;
12165;SDS011;6146;48.128;11.476;2024-02-15T01:11:08;1.73;;;1.60;;
12165;SDS011;6146;48.128;11.476;2024-02-15T01:13:34;2.33;;;1.57;;
12165;SDS011;6146;48.128;11.476;2024-02-15T01:16:00;1.70;;;1.50;;
12165;SDS011;6146;48.128;11.476;2024-02-15T01:18:28;1.83;;;1.63;;
12165;SDS011;6146;48.128;11.476;2024-02-15T01:20:54;1.40;;;1.30;;
12165;SDS011;6146;48.128;11.476;2024-02-15T01:23:20;1.43;;;1.33;;
12165;SDS011;6146;48.128;11.476;2024-02-15T01:25:47;1.83;;;1.43;;
12165;SDS011;6146;48.128;11.476;2024-02-15T01:28:13;2.07;;;1.57;;
12165;SDS011;6146;48.128;11.476;2024-02-15T01:30:38;1.53;;;1.43;;
12165;SDS011;6146;48.128;11.476;2024-02-15T01:33:04;1.60;;;1.50;;
12165;SDS011;6146;48.128;11.476;2024-02-15T01:35:30;2.97;;;1.70;;
12165;SDS011;6146;48.128;11.476;2024-02-15T01:37:55;1.70;;;1.50;;
12165;SDS011;6146;48.128;11.476;2024-02-15T01:40:21;1.90;;;1.50;;
12165;SDS011;6146;48.128;11.476;2024-02-15T01:42:47;2.90;;;1.87;;
12165;SDS011;6146;48.128;11.476;2024-02-15T01:45:14;1.40;;;1.30;;
12165;SDS011;6146;48.128;11.476;2024-02-15T01:47:41;1.40;;;1.30;;
12165;SDS011;6146;48.128;11.476;2024-02-15T01:50:08;1.53;;;1.40;;
12165;SDS011;6146;48.128;11.476;2024-02-15T01:52:36;1.90;;;1.70;;
12165;SDS011;6146;48.128;11.476;2024-02-15T01:55:02;3.10;;;1.70;;
12165;SDS011;6146;48.128;11.476;2024-02-15T01:57:33;1.73;;;1.50;;
12165;SDS011;6146;48.128;11.476;2024-02-15T02:00:03;2.23;;;1.83;;
12165;SDS011;6146;48.128;11.476;2024-02-15T02:02:30;1.60;;;1.50;;
12165;SDS011;6146;48.128;11.476;2024-02-15T02:04:59;1.80;;;1.50;;
12165;SDS011;6146;48.128;11.476;2024-02-15T02:07:24;1.47;;;1.30;;
12165;SDS011;6146;48.128;11.476;2024-02-15T02:09:51;3.50;;;1.70;;
12165;SDS011;6146;48.128;11.476;2024-02-15T02:12:16;1.67;;;1.57;;
12165;SDS011;6146;48.128;11.476;2024-02-15T02:14:43;3.13;;;2.10;;
12165;SDS011;6146;48.128;11.476;2024-02-15T02:17:12;2.20;;;1.70;;
12165;SDS011;6146;48.128;11.476;2024-02-15T02:19:39;1.50;;;1.40;;
12165;SDS011;6146;48.128;11.476;2024-02-15T02:22:04;3.40;;;1.80;;
12165;SDS011;6146;48.128;11.476;2024-02-15T02:24:30;2.50;;;1.70;;
12165;SDS011;6146;48.128;11.476;2024-02-15T02:27:02;1.70;;;1.60;;
12165;SDS011;6146;48.128;11.476;2024-02-15T02:29:30;1.80;;;1.70;;
12165;SDS011;6146;48.128;11.476;2024-02-15T02:31:56;2.87;;;1.70;;
12165;SDS011;6146;48.128;11.476;2024-02-15T02:34:22;1.50;;;1.40;;
12165;SDS011;6146;48.128;11.476;2024-02-15T02:36:47;1.57;;;1.47;;
12165;SDS011;6146;48.128;11.476;2024-02-15T02:39:15;2.47;;;1.50;;
12165;SDS011;6146;48.128;11.476;2024-02-15T02:41:41;1.50;;;1.40;;
12165;SDS011;6146;48.128;11.476;2024-02-15T02:44:07;1.80;;;1.57;;
12165;SDS011;6146;48.128;11.476;2024-02-15T02:46:33;2.37;;;1.40;;
12165;SDS011;6146;48.128;11.476;2024-02-15T02:48:58;2.00;;;1.50;;
12165;SDS011;6146;48.128;11.476;2024-02-15T02:51:24;1.77;;;1.67;;
12165;SDS011;6146;48.128;11.476;2024-02-15T02:53:50;1.67;;;1.53;;
12165;SDS011;6146;48.128;11.476;2024-02-15T02:56:15;2.37;;;1.83;;
12165;SDS011;6146;48.128;11.476;2024-02-15T02:58:41;2.97;;;1.80;;
12165;SDS011;6146;48.128;11.476;2024-02-15T03:01:09;2.90;;;2.13;;
12165;SDS011;6146;48.128;11.476;2024-02-15T03:03:38;5.23;;;2.00;;
12165;SDS011;6146;48.128;11.476;2024-02-15T03:06:04;2.23;;;1.70;;
12165;SDS011;6146;48.128;11.476;2024-02-15T03:08:31;2.60;;;1.90;;
12165;SDS011;6146;48.128;11.476;2024-02-15T03:10:56;2.10;;;1.70;;
12165;SDS011;6146;48.128;11.476;2024-02-15T03:13:22;3.47;;;2.30;;
12165;SDS011;6146;48.128;11.476;2024-02-15T03:15:48;2.50;;;2.00;;
12165;SDS011;6146;48.128;11.476;2024-02-15T03:18:16;2.23;;;1.90;;
12165;SDS011;6146;48.128;11.476;2024-02-15T03:20:42;2.33;;;1.67;;
12165;SDS011;6146;48.128;11.476;2024-02-15T03:23:08;2.10;;;1.60;;
12165;SDS011;6146;48.128;11.476;2024-02-15T03:25:34;2.43;;;1.73;;
12165;SDS011;6146;48.128;11.476;2024-02-15T03:28:00;1.93;;;1.57;;
12165;SDS011;6146;48.128;11.476;2024-02-15T03:30:29;2.57;;;1.60;;
12165;SDS011;6146;48.128;11.476;2024-02-15T03:32:56;2.33;;;1.50;;
12165;SDS011;6146;48.128;11.476;2024-02-15T03:35:26;1.70;;;1.47;;
12165;SDS011;6146;48.128;11.476;2024-02-15T03:37:56;1.90;;;1.60;;
12165;SDS011;6146;48.128;11.476;2024-02-15T03:40:22;2.60;;;1.80;;
12165;SDS011;6146;48.128;11.476;2024-02-15T03:42:51;2.60;;;1.67;;
12165;SDS011;6146;48.128;11.476;2024-02-15T03:45:18;2.27;;;1.30;;
12165;SDS011;6146;48.128;11.476;2024-02-15T03:47:43;2.80;;;1.53;;
12165;SDS011;6146;48.128;11.476;2024-02-15T03:50:10;2.10;;;1.90;;
12165;SDS011;6146;48.128;11.476;2024-02-15T03:52:37;2.03;;;1.50;;
12165;SDS011;6146;48.128;11.476;2024-02-15T03:55:03;1.77;;;1.50;;
12165;SDS011;6146;48.128;11.476;2024-02-15T03:57:29;2.37;;;2.00;;
12165;SDS011;6146;48.128;11.476;2024-02-15T03:59:55;3.73;;;1.73;;
12165;SDS011;6146;48.128;11.476;2024-02-15T04:02:24;1.77;;;1.53;;
12165;SDS011;6146;48.128;11.476;2024-02-15T04:04:54;1.67;;;1.43;;
12165;SDS011;6146;48.128;11.476;2024-02-15T04:07:20;3.40;;;1.60;;
12165;SDS011;6146;48.128;11.476;2024-02-15T04:09:47;2.10;;;1.70;;
12165;SDS011;6146;48.128;11.476;2024-02-15T04:12:13;1.87;;;1.70;;
12165;SDS011;6146;48.128;11.476;2024-02-15T04:14:40;3.67;;;1.53;;
12165;SDS011;6146;48.128;11.476;2024-02-15T04:17:07;2.80;;;1.43;;
12165;SDS011;6146;48.128;11.476;2024-02-15T04:19:33;2.30;;;1.60;;
12165;SDS011;6146;48.128;11.476;2024-02-15T04:21:59;1.87;;;1.40;;
12165;SDS011;6146;48.128;11.476;2024-02-15T04:24:26;2.87;;;1.60;;
12165;SDS011;6146;48.128;11.476;2024-02-15T04:26:51;2.93;;;1.90;;
12165;SDS011;6146;48.128;11.476;2024-02-15T04:29:17;2.40;;;1.77;;
12165;SDS011;6146;48.128;11.476;2024-02-15T04:31:45;1.67;;;1.57;;
12165;SDS011;6146;48.128;11.476;2024-02-15T04:34:14;1.77;;;1.47;;
12165;SDS011;6146;48.128;11.476;2024-02-15T04:36:46;2.40;;;1.80;;
12165;SDS011;6146;48.128;11.476;2024-02-15T04:39:19;2.93;;;1.70;;
12165;SDS011;6146;48.128;11.476;2024-02-15T04:41:52;1.77;;;1.50;;
12165;SDS011;6146;48.128;11.476;2024-02-15T04:44:18;2.80;;;1.70;;
12165;SDS011;6146;48.128;11.476;2024-02-15T04:46:45;1.83;;;1.57;;
12165;SDS011;6146;48.128;11.476;2024-02-15T04:49:12;1.40;;;1.30;;
12165;SDS011;6146;48.128;11.476;2024-02-15T04:51:40;1.83;;;1.60;;
12165;SDS011;6146;48.128;11.476;2024-02-15T04:54:09;2.23;;;1.80;;
12165;SDS011;6146;48.128;11.476;2024-02-15T04:56:38;2.03;;;1.60;;
12165;SDS011;6146;48.128;11.476;2024-02-15T04:59:07;1.93;;;1.50;;
12165;SDS011;6146;48.128;11.476;2024-02-15T05:01:36;2.67;;;1.60;;
12165;SDS011;6146;48.128;11.476;2024-02-15T05:04:02;2.00;;;1.70;;
12165;SDS011;6146;48.128;11.476;2024-02-15T05:06:32;1.93;;;1.60;;
12165;SDS011;6146;48.128;11.476;2024-02-15T05:08:58;2.20;;;1.33;;
12165;SDS011;6146;48.128;11.476;2024-02-15T05:11:25;1.67;;;1.57;;
12165;SDS011;6146;48.128;11.476;2024-02-15T05:13:51;2.67;;;1.50;;
12165;SDS011;6146;48.128;11.476;2024-02-15T05:16:17;2.30;;;1.60;;
12165;SDS011;6146;48.128;11.476;2024-02-15T05:18:43;2.73;;;1.70;;
12165;SDS011;6146;48.128;11.476;2024-02-15T05:21:10;3.40;;;1.70;;
12165;SDS011;6146;48.128;11.476;2024-02-15T05:23:36;2.20;;;1.57;;
12165;SDS011;6146;48.128;11.476;2024-02-15T05:26:04;2.23;;;1.60;;
12165;SDS011;6146;48.128;11.476;2024-02-15T05:28:33;3.33;;;2.07;;
12165;SDS011;6146;48.128;11.476;2024-02-15T05:33:59;2.03;;;1.60;;
12165;SDS011;6146;48.128;11.476;2024-02-15T05:36:25;3.30;;;1.70;;
12165;SDS011;6146;48.128;11.476;2024-02-15T05:38:51;4.67;;;1.90;;
12165;SDS011;6146;48.128;11.476;2024-02-15T05:41:18;1.80;;;1.33;;
12165;SDS011;6146;48.128;11.476;2024-02-15T05:43:45;1.70;;;1.50;;
12165;SDS011;6146;48.128;11.476;2024-02-15T05:46:13;1.83;;;1.67;;
12165;SDS011;6146;48.128;11.476;2024-02-15T05:48:39;2.67;;;1.73;;
12165;SDS011;6146;48.128;11.476;2024-02-15T05:51:05;1.87;;;1.50;;
12165;SDS011;6146;48.128;11.476;2024-02-15T05:53:32;1.60;;;1.50;;
12165;SDS011;6146;48.128;11.476;2024-02-15T05:56:00;1.87;;;1.50;;
12165;SDS011;6146;48.128;11.476;2024-02-15T05:58:35;4.10;;;1.77;;
12165;SDS011;6146;48.128;11.476;2024-02-15T06:01:03;2.33;;;1.80;;
12165;SDS011;6146;48.128;11.476;2024-02-15T06:03:32;3.57;;;1.87;;
12165;SDS011;6146;48.128;11.476;2024-02-15T06:06:01;2.63;;;1.50;;
12165;SDS011;6146;48.128;11.476;2024-02-15T06:08:31;2.30;;;2.07;;
12165;SDS011;6146;48.128;11.476;2024-02-15T06:10:57;3.40;;;1.63;;
12165;SDS011;6146;48.128;11.476;2024-02-15T06:13:23;2.13;;;1.90;;
12165;SDS011;6146;48.128;11.476;2024-02-15T06:15:50;2.53;;;1.70;;
12165;SDS011;6146;48.128;11.476;2024-02-15T06:18:23;2.00;;;1.40;;
12165;SDS011;6146;48.128;11.476;2024-02-15T06:20:51;2.97;;;1.70;;
12165;SDS011;6146;48.128;11.476;2024-02-15T06:23:17;2.00;;;1.70;;
12165;SDS011;6146;48.128;11.476;2024-02-15T06:25:43;2.47;;;1.70;;
12165;SDS011;6146;48.128;11.476;2024-02-15T06:28:14;1.90;;;1.67;;
12165;SDS011;6146;48.128;11.476;2024-02-15T06:30:59;2.40;;;1.80;;
12165;SDS011;6146;48.128;11.476;2024-02-15T06:33:43;3.13;;;1.80;;
12165;SDS011;6146;48.128;11.476;2024-02-15T06:36:27;3.73;;;1.50;;
12165;SDS011;6146;48.128;11.476;2024-02-15T06:39:11;2.00;;;1.63;;
12165;SDS011;6146;48.128;11.476;2024-02-15T06:41:55;2.57;;;1.53;;
12165;SDS011;6146;48.128;11.476;2024-02-15T06:44:21;2.53;;;1.60;;
12165;SDS011;6146;48.128;11.476;2024-02-15T06:46:49;3.77;;;1.70;;
12165;SDS011;6146;48.128;11.476;2024-02-15T06:49:15;2.53;;;1.93;;
12165;SDS011;6146;48.128;11.476;2024-02-15T06:51:41;4.50;;;1.80;;
12165;SDS011;6146;48.128;11.476;2024-02-15T06:54:07;2.13;;;1.70;;
12165;SDS011;6146;48.128;11.476;2024-02-15T06:56:35;3.40;;;1.60;;
12165;SDS011;6146;48.128;11.476;2024-02-15T06:59:02;2.53;;;1.77;;
12165;SDS011;6146;48.128;11.476;2024-02-15T07:01:28;2.20;;;1.50;;
12165;SDS011;6146;48.128;11.476;2024-02-15T07:03:53;1.43;;;1.33;;
12165;SDS011;6146;48.128;11.476;2024-02-15T07:06:20;3.43;;;1.40;;
12165;SDS011;6146;48.128;11.476;2024-02-15T07:08:46;5.07;;;1.63;;
12165;SDS011;6146;48.128;11.476;2024-02-15T07:11:15;1.77;;;1.63;;
12165;SDS011;6146;48.128;11.476;2024-02-15T07:13:41;3.77;;;1.67;;
12165;SDS011;6146;48.128;11.476;2024-02-15T07:16:09;5.40;;;1.90;;
12165;SDS011;6146;48.128;11.476;2024-02-15T07:18:36;3.50;;;2.17;;
12165;SDS011;6146;48.128;11.476;2024-02-15T07:21:02;4.37;;;2.30;;
12165;SDS011;6146;48.128;11.476;2024-02-15T07:23:33;1.97;;;1.70;;
12165;SDS011;6146;48.128;11.476;2024-02-15T07:25:59;2.50;;;1.80;;
12165;SDS011;6146;48.128;11.476;2024-02-15T07:28:25;4.47;;;1.53;;
12165;SDS011;6146;48.128;11.476;2024-02-15T07:30:54;2.60;;;1.80;;
12165;SDS011;6146;48.128;11.476;2024-02-15T07:33:20;4.03;;;1.57;;
12165;SDS011;6146;48.128;11.476;2024-02-15T07:35:47;1.93;;;1.50;;
12165;SDS011;6146;48.128;11.476;2024-02-15T07:38:15;3.60;;;1.53;;
12165;SDS011;6146;48.128;11.476;2024-02-15T07:40:42;2.57;;;1.70;;
12165;SDS011;6146;48.128;11.476;2024-02-15T07:43:07;2.43;;;1.50;;
12165;SDS011;6146;48.128;11.476;2024-02-15T07:45:33;3.30;;;1.53;;
12165;SDS011;6146;48.128;11.476;2024-02-15T07:48:01;4.40;;;2.20;;
12165;SDS011;6146;48.128;11.476;2024-02-15T07:50:29;5.80;;;1.93;;
12165;SDS011;6146;48.128;11.476;2024-02-15T07:52:55;1.70;;;1.37;;
12165;SDS011;6146;48.128;11.476;2024-02-15T07:55:21;2.27;;;1.50;;
12165;SDS011;6146;48.128;11.476;2024-02-15T07:57:49;1.90;;;1.70;;
12165;SDS011;6146;48.128;11.476;2024-02-15T08:00:15;3.30;;;1.63;;
12165;SDS011;6146;48.128;11.476;2024-02-15T08:02:42;2.90;;;1.50;;
12165;SDS011;6146;48.128;11.476;2024-02-15T08:05:11;2.13;;;1.60;;
12165;SDS011;6146;48.128;11.476;2024-02-15T08:07:41;3.17;;;1.60;;
12165;SDS011;6146;48.128;11.476;2024-02-15T08:10:09;1.60;;;1.40;;
12165;SDS011;6146;48.128;11.476;2024-02-15T08:12:38;2.50;;;1.60;;
12165;SDS011;6146;48.128;11.476;2024-02-15T08:15:08;2.40;;;1.40;;
12165;SDS011;6146;48.128;11.476;2024-02-15T08:17:43;2.23;;;1.70;;
12165;SDS011;6146;48.128;11.476;2024-02-15T08:20:12;2.90;;;1.80;;
12165;SDS011;6146;48.128;11.476;2024-02-15T08:22:39;4.50;;;1.60;;
12165;SDS011;6146;48.128;11.476;2024-02-15T08:25:11;3.30;;;1.70;;
12165;SDS011;6146;48.128;11.476;2024-02-15T08:30:11;1.90;;;1.70;;
12165;SDS011;6146;48.128;11.476;2024-02-15T08:32:40;1.87;;;1.50;;
12165;SDS011;6146;48.128;11.476;2024-02-15T08:35:10;3.63;;;2.80;;
12165;SDS011;6146;48.128;11.476;2024-02-15T08:37:37;4.27;;;1.80;;
12165;SDS011;6146;48.128;11.476;2024-02-15T08:40:04;3.80;;;1.80;;
12165;SDS011;6146;48.128;11.476;2024-02-15T08:42:43;5.17;;;1.50;;
12165;SDS011;6146;48.128;11.476;2024-02-15T08:45:09;2.60;;;1.27;;
12165;SDS011;6146;48.128;11.476;2024-02-15T08:47:39;3.37;;;1.80;;
12165;SDS011;6146;48.128;11.476;2024-02-15T08:50:06;2.10;;;1.40;;
12165;SDS011;6146;48.128;11.476;2024-02-15T08:52:34;4.15;;;1.67;;
12165;SDS011;6146;48.128;11.476;2024-02-15T08:55:02;3.35;;;1.50;;
12165;SDS011;6146;48.128;11.476;2024-02-15T08:57:32;3.72;;;1.40;;
12165;SDS011;6146;48.128;11.476;2024-02-15T08:59:58;3.38;;;1.50;;
12165;SDS011;6146;48.128;11.476;2024-02-15T09:02:24;1.80;;;1.27;;
12165;SDS011;6146;48.128;11.476;2024-02-15T09:04:50;2.28;;;1.40;;
12165;SDS011;6146;48.128;11.476;2024-02-15T09:07:15;1.45;;;1.10;;
12165;SDS011;6146;48.128;11.476;2024-02-15T09:09:41;1.77;;;1.15;;
12165;SDS011;6146;48.128;11.476;2024-02-15T09:12:06;3.55;;;1.58;;
12165;SDS011;6146;48.128;11.476;2024-02-15T09:14:33;2.63;;;1.20;;
12165;SDS011;6146;48.128;11.476;2024-02-15T09:17:01;2.65;;;1.30;;
12165;SDS011;6146;48.128;11.476;2024-02-15T09:19:32;1.63;;;1.40;;
12165;SDS011;6146;48.128;11.476;2024-02-15T09:21:58;1.52;;;1.17;;
12165;SDS011;6146;48.128;11.476;2024-02-15T09:24:23;2.70;;;1.50;;
12165;SDS011;6146;48.128;11.476;2024-02-15T09:26:50;5.43;;;1.55;;
12165;SDS011;6146;48.128;11.476;2024-02-15T09:29:16;3.08;;;1.70;;
12165;SDS011;6146;48.128;11.476;2024-02-15T09:31:42;3.20;;;1.50;;
12165;SDS011;6146;48.128;11.476;2024-02-15T09:34:08;1.58;;;1.48;;
12165;SDS011;6146;48.128;11.476;2024-02-15T09:36:34;2.40;;;1.52;;
12165;SDS011;6146;48.128;11.476;2024-02-15T09:39:04;2.08;;;1.33;;
12165;SDS011;6146;48.128;11.476;2024-02-15T09:41:31;1.40;;;1.17;;
12165;SDS011;6146;48.128;11.476;2024-02-15T09:43:57;1.73;;;1.40;;
12165;SDS011;6146;48.128;11.476;2024-02-15T09:46:22;2.35;;;1.50;;
12165;SDS011;6146;48.128;11.476;2024-02-15T09:48:50;2.65;;;1.52;;
12165;SDS011;6146;48.128;11.476;2024-02-15T09:51:23;2.05;;;1.48;;
12165;SDS011;6146;48.128;11.476;2024-02-15T09:53:52;2.55;;;1.40;;
12165;SDS011;6146;48.128;11.476;2024-02-15T09:56:18;1.40;;;1.30;;
12165;SDS011;6146;48.128;11.476;2024-02-15T09:58:46;1.67;;;1.20;;
12165;SDS011;6146;48.128;11.476;2024-02-15T10:01:12;1.25;;;1.10;;
12165;SDS011;6146;48.128;11.476;2024-02-15T10:03:39;1.70;;;1.20;;
12165;SDS011;6146;48.128;11.476;2024-02-15T10:06:06;2.60;;;1.35;;
12165;SDS011;6146;48.128;11.476;2024-02-15T10:08:32;2.30;;;1.40;;
12165;SDS011;6146;48.128;11.476;2024-02-15T10:11:10;1.17;;;1.00;;
12165;SDS011;6146;48.128;11.476;2024-02-15T10:13:36;1.63;;;1.10;;
12165;SDS011;6146;48.128;11.476;2024-02-15T10:16:13;1.13;;;1.05;;
12165;SDS011;6146;48.128;11.476;2024-02-15T10:18:43;1.35;;;1.10;;
12165;SDS011;6146;48.128;11.476;2024-02-15T10:21:25;2.83;;;1.10;;
12165;SDS011;6146;48.128;11.476;2024-02-15T10:24:06;2.35;;;1.10;;
12165;SDS011;6146;48.128;11.476;2024-02-15T10:26:33;3.45;;;1.48;;
12165;SDS011;6146;48.128;11.476;2024-02-15T10:29:06;1.30;;;0.90;;
12165;SDS011;6146;48.128;11.476;2024-02-15T10:31:37;0.85;;;0.80;;
12165;SDS011;6146;48.128;11.476;2024-02-15T10:34:06;1.30;;;1.08;;
12165;SDS011;6146;48.128;11.476;2024-02-15T10:36:32;1.50;;;1.10;;
12165;SDS011;6146;48.128;11.476;2024-02-15T10:39:14;2.47;;;1.30;;
12165;SDS011;6146;48.128;11.476;2024-02-15T10:41:48;2.47;;;1.35;;
12165;SDS011;6146;48.128;11.476;2024-02-15T10:46:44;2.88;;;1.13;;
12165;SDS011;6146;48.128;11.476;2024-02-15T10:49:12;0.90;;;0.90;;
12165;SDS011;6146;48.128;11.476;2024-02-15T10:51:39;0.70;;;0.70;;
12165;SDS011;6146;48.128;11.476;2024-02-15T10:54:10;1.10;;;1.00;;
12165;SDS011;6146;48.128;11.476;2024-02-15T10:56:43;1.88;;;1.23;;
12165;SDS011;6146;48.128;11.476;2024-02-15T10:59:16;1.70;;;0.95;;
12165;SDS011;6146;48.128;11.476;2024-02-15T11:01:44;1.55;;;0.82;;
12165;SDS011;6146;48.128;11.476;2024-02-15T11:04:15;1.67;;;1.08;;
12165;SDS011;6146;48.128;11.476;2024-02-15T11:06:46;1.40;;;0.85;;
12165;SDS011;6146;48.128;11.476;2024-02-15T11:09:15;0.85;;;0.85;;
12165;SDS011;6146;48.128;11.476;2024-02-15T11:11:41;1.13;;;0.90;;
12165;SDS011;6146;48.128;11.476;2024-02-15T11:14:23;1.90;;;0.98;;
12165;SDS011;6146;48.128;11.476;2024-02-15T11:16:54;2.00;;;0.90;;
12165;SDS011;6146;48.128;11.476;2024-02-15T11:22:01;0.82;;;0.80;;
12165;SDS011;6146;48.128;11.476;2024-02-15T11:24:34;1.33;;;1.00;;
12165;SDS011;6146;48.128;11.476;2024-02-15T11:27:03;1.00;;;0.90;;
12165;SDS011;6146;48.128;11.476;2024-02-15T11:32:44;1.00;;;0.90;;
12165;SDS011;6146;48.128;11.476;2024-02-15T11:35:11;1.08;;;1.00;;
12165;SDS011;6146;48.128;11.476;2024-02-15T11:40:15;1.00;;;0.90;;
12165;SDS011;6146;48.128;11.476;2024-02-15T11:42:52;0.98;;;0.80;;
12165;SDS011;6146;48.128;11.476;2024-02-15T11:45:19;2.50;;;1.23;;
12165;SDS011;6146;48.128;11.476;2024-02-15T11:47:49;2.25;;;1.20;;
12165;SDS011;6146;48.128;11.476;2024-02-15T11:50:16;1.10;;;0.90;;
12165;SDS011;6146;48.128;11.476;2024-02-15T11:52:46;1.02;;;0.93;;
12165;SDS011;6146;48.128;11.476;2024-02-15T11:55:14;1.48;;;0.90;;
12165;SDS011;6146;48.128;11.476;2024-02-15T11:57:44;0.70;;;0.70;;
12165;SDS011;6146;48.128;11.476;2024-02-15T12:00:35;1.13;;;0.98;;
12165;SDS011;6146;48.128;11.476;2024-02-15T12:03:22;1.00;;;0.90;;
12165;SDS011;6146;48.128;11.476;2024-02-15T12:06:07;0.88;;;0.88;;
12165;SDS011;6146;48.128;11.476;2024-02-15T12:08:52;1.63;;;1.00;;
12165;SDS011;6146;48.128;11.476;2024-02-15T12:11:37;2.07;;;1.10;;
12165;SDS011;6146;48.128;11.476;2024-02-15T12:14:22;1.60;;;1.10;;
12165;SDS011;6146;48.128;11.476;2024-02-15T12:17:10;1.00;;;1.00;;
12165;SDS011;6146;48.128;11.476;2024-02-15T12:19:56;1.00;;;0.90;;
12165;SDS011;6146;48.128;11.476;2024-02-15T12:22:25;1.90;;;0.93;;
12165;SDS011;6146;48.128;11.476;2024-02-15T12:24:59;1.10;;;1.00;;
12165;SDS011;6146;48.128;11.476;2024-02-15T12:27:30;1.97;;;0.90;;
12165;SDS011;6146;48.128;11.476;2024-02-15T12:29:57;2.10;;;1.10;;
12165;SDS011;6146;48.128;11.476;2024-02-15T12:32:23;1.10;;;1.00;;
12165;SDS011;6146;48.128;11.476;2024-02-15T12:34:50;1.80;;;1.00;;
12165;SDS011;6146;48.128;11.476;2024-02-15T12:37:20;1.77;;;1.20;;
12165;SDS011;6146;48.128;11.476;2024-02-15T12:39:48;1.67;;;1.10;;
12165;SDS011;6146;48.128;11.476;2024-02-15T12:42:14;2.03;;;0.90;;
12165;SDS011;6146;48.128;11.476;2024-02-15T12:44:44;1.40;;;1.10;;
12165;SDS011;6146;48.128;11.476;2024-02-15T12:47:20;1.77;;;1.00;;
12165;SDS011;6146;48.128;11.476;2024-02-15T12:49:47;0.97;;;0.80;;
12165;SDS011;6146;48.128;11.476;2024-02-15T12:55:15;1.13;;;0.80;;
12165;SDS011;6146;48.128;11.476;2024-02-15T12:57:42;1.23;;;1.00;;
12165;SDS011;6146;48.128;11.476;2024-02-15T13:00:15;1.20;;;1.00;;
12165;SDS011;6146;48.128;11.476;2024-02-15T13:02:45;2.00;;;1.10;;
12165;SDS011;6146;48.128;11.476;2024-02-15T13:05:11;3.03;;;1.20;;
12165;SDS011;6146;48.128;11.476;2024-02-15T13:07:37;1.87;;;0.90;;
12165;SDS011;6146;48.128;11.476;2024-02-15T13:10:03;1.70;;;1.00;;
12165;SDS011;6146;48.128;11.476;2024-02-15T13:12:32;1.77;;;1.23;;
12165;SDS011;6146;48.128;11.476;2024-02-15T13:15:04;1.83;;;1.07;;
12165;SDS011;6146;48.128;11.476;2024-02-15T13:17:31;1.10;;;0.80;;
12165;SDS011;6146;48.128;11.476;2024-02-15T13:19:58;0.87;;;0.80;;
12165;SDS011;6146;48.128;11.476;2024-02-15T13:22:30;1.10;;;0.90;;
12165;SDS011;6146;48.128;11.476;2024-02-15T13:24:57;1.47;;;1.10;;
12165;SDS011;6146;48.128;11.476;2024-02-15T13:27:22;2.03;;;1.10;;
12165;SDS011;6146;48.128;11.476;2024-02-15T13:29:49;1.87;;;1.20;;
12165;SDS011;6146;48.128;11.476;2024-02-15T13:32:15;2.37;;;1.10;;
12165;SDS011;6146;48.128;11.476;2024-02-15T13:34:42;1.93;;;0.70;;
12165;SDS011;6146;48.128;11.476;2024-02-15T13:37:10;1.10;;;0.90;;
12165;SDS011;6146;48.128;11.476;2024-02-15T13:39:38;2.40;;;0.90;;
12165;SDS011;6146;48.128;11.476;2024-02-15T13:42:08;1.20;;;0.80;;
12165;SDS011;6146;48.128;11.476;2024-02-15T13:44:33;1.57;;;1.00;;
12165;SDS011;6146;48.128;11.476;2024-02-15T13:46:59;3.97;;;1.20;;
12165;SDS011;6146;48.128;11.476;2024-02-15T13:49:25;1.43;;;1.00;;
12165;SDS011;6146;48.128;11.476;2024-02-15T13:51:51;1.07;;;0.97;;
12165;SDS011;6146;48.128;11.476;2024-02-15T13:54:17;1.50;;;0.90;;
12165;SDS011;6146;48.128;11.476;2024-02-15T13:56:43;1.57;;;1.00;;
12165;SDS011;6146;48.128;11.476;2024-02-15T13:59:09;2.60;;;0.90;;
12165;SDS011;6146;48.128;11.476;2024-02-15T14:01:34;1.33;;;1.17;;
12165;SDS011;6146;48.128;11.476;2024-02-15T14:04:08;1.80;;;0.90;;
12165;SDS011;6146;48.128;11.476;2024-02-15T14:06:34;1.70;;;1.00;;
12165;SDS011;6146;48.128;11.476;2024-02-15T14:09:02;1.73;;;1.13;;
12165;SDS011;6146;48.128;11.476;2024-02-15T14:11:28;1.20;;;1.10;;
12165;SDS011;6146;48.128;11.476;2024-02-15T14:13:53;1.50;;;1.20;;
12165;SDS011;6146;48.128;11.476;2024-02-15T14:16:23;1.10;;;1.00;;
12165;SDS011;6146;48.128;11.476;2024-02-15T14:18:51;1.10;;;1.00;;
12165;SDS011;6146;48.128;11.476;2024-02-15T14:21:17;1.87;;;1.17;;
12165;SDS011;6146;48.128;11.476;2024-02-15T14:23:43;1.30;;;1.20;;
12165;SDS011;6146;48.128;11.476;2024-02-15T14:26:09;1.40;;;1.07;;
12165;SDS011;6146;48.128;11.476;2024-02-15T14:28:35;1.47;;;0.87;;
12165;SDS011;6146;48.128;11.476;2024-02-15T14:31:00;1.27;;;1.10;;
12165;SDS011;6146;48.128;11.476;2024-02-15T14:33:45;1.17;;;1.10;;
12165;SDS011;6146;48.128;11.476;2024-02-15T14:36:11;2.57;;;1.10;;
12165;SDS011;6146;48.128;11.476;2024-02-15T14:38:39;1.23;;;1.10;;
12165;SDS011;6146;48.128;11.476;2024-02-15T14:41:05;1.40;;;1.27;;
12165;SDS011;6146;48.128;11.476;2024-02-15T14:43:31;1.50;;;1.30;;
12165;SDS011;6146;48.128;11.476;2024-02-15T14:45:58;1.80;;;1.40;;
12165;SDS011;6146;48.128;11.476;2024-02-15T14:48:26;1.23;;;1.10;;
12165;SDS011;6146;48.128;11.476;2024-02-15T14:50:52;3.47;;;1.43;;
12165;SDS011;6146;48.128;11.476;2024-02-15T14:53:18;1.40;;;1.10;;
12165;SDS011;6146;48.128;11.476;2024-02-15T14:55:44;1.43;;;1.00;;
12165;SDS011;6146;48.128;11.476;2024-02-15T14:58:12;1.40;;;1.20;;
12165;SDS011;6146;48.128;11.476;2024-02-15T15:00:40;1.97;;;1.30;;
12165;SDS011;6146;48.128;11.476;2024-02-15T15:03:09;2.37;;;1.50;;
12165;SDS011;6146;48.128;11.476;2024-02-15T15:05:38;2.83;;;1.23;;
12165;SDS011;6146;48.128;11.476;2024-02-15T15:08:22;1.47;;;1.10;;
12165;SDS011;6146;48.128;11.476;2024-02-15T15:11:06;5.03;;;1.40;;
12165;SDS011;6146;48.128;11.476;2024-02-15T15:13:50;2.40;;;1.30;;